createdAt,value
2018-07-05T00:01:15.448Z,19.40
2018-07-05T00:03:54.969Z,19.50
2018-07-05T00:06:34.756Z,19.50
2018-07-05T00:09:15.166Z,19.50
2018-07-05T00:11:54.790Z,19.50
2018-07-05T00:14:34.669Z,19.40
2018-07-05T00:17:14.322Z,19.40
2018-07-05T00:19:53.863Z,19.40
2018-07-05T00:22:33.670Z,19.30
2018-07-05T00:25:13.349Z,19.30
2018-07-05T00:27:52.856Z,19.20
2018-07-05T00:30:32.545Z,19.10
2018-07-05T00:33:12.236Z,19.00
2018-07-05T00:35:51.716Z,18.90
2018-07-05T00:38:31.429Z,18.90
2018-07-05T00:41:10.979Z,19.00
2018-07-05T00:43:50.719Z,19.00
2018-07-05T00:46:30.339Z,19.00
2018-07-05T00:49:10.179Z,19.00
2018-07-05T00:51:50.277Z,19.00
2018-07-05T00:54:29.927Z,18.90
2018-07-05T00:57:09.453Z,18.80
2018-07-05T00:59:48.945Z,18.70
2018-07-05T01:02:28.368Z,18.60
2018-07-05T01:05:07.935Z,18.40
2018-07-05T01:07:47.425Z,18.40
2018-07-05T01:10:26.971Z,18.30
2018-07-05T01:13:06.739Z,18.40
2018-07-05T01:15:46.935Z,18.40
2018-07-05T01:18:26.463Z,18.30
2018-07-05T01:21:05.986Z,18.30
2018-07-05T01:23:45.704Z,18.40
2018-07-05T01:26:25.358Z,18.40
2018-07-05T01:29:04.944Z,18.40
2018-07-05T01:31:44.526Z,18.40
2018-07-05T01:34:24.051Z,18.50
2018-07-05T01:37:03.598Z,18.50
2018-07-05T01:39:43.080Z,18.40
2018-07-05T01:42:22.756Z,18.30
2018-07-05T01:45:02.327Z,18.30
2018-07-05T01:47:41.846Z,18.40
2018-07-05T01:50:21.324Z,18.40
2018-07-05T01:53:00.845Z,18.40
2018-07-05T01:55:40.462Z,18.40
2018-07-05T01:58:20.149Z,18.40
2018-07-05T02:00:59.774Z,18.40
2018-07-05T02:03:39.447Z,18.40
2018-07-05T02:06:19.002Z,18.40
2018-07-05T02:08:58.589Z,18.30
2018-07-05T02:11:38.212Z,18.20
2018-07-05T02:14:17.756Z,18.20
2018-07-05T02:16:57.674Z,18.20
2018-07-05T02:19:37.306Z,18.20
2018-07-05T02:22:16.921Z,18.30
2018-07-05T02:24:56.494Z,18.30
2018-07-05T02:27:36.801Z,18.20
2018-07-05T02:30:16.677Z,18.10
2018-07-05T02:32:56.414Z,18.00
2018-07-05T02:35:36.064Z,17.80
2018-07-05T02:38:20.985Z,17.80
2018-07-05T02:41:00.592Z,17.80
2018-07-05T02:43:40.230Z,17.90
2018-07-05T02:46:19.699Z,17.90
2018-07-05T02:48:59.307Z,17.60
2018-07-05T02:51:39.405Z,17.60
2018-07-05T02:54:19.226Z,17.70
2018-07-05T02:56:58.990Z,17.80
2018-07-05T02:59:38.571Z,17.70
2018-07-05T03:02:18.364Z,17.70
2018-07-05T03:04:57.875Z,17.80
2018-07-05T03:07:37.552Z,17.90
2018-07-05T03:10:17.162Z,17.90
2018-07-05T03:12:56.791Z,18.00
2018-07-05T03:15:36.458Z,18.00
2018-07-05T03:18:16.117Z,17.90
2018-07-05T03:20:55.599Z,17.70
2018-07-05T03:23:35.263Z,17.80
2018-07-05T03:26:14.758Z,17.80
2018-07-05T03:28:54.416Z,17.80
2018-07-05T03:31:34.098Z,17.70
2018-07-05T03:34:13.634Z,17.50
2018-07-05T03:36:53.154Z,17.40
2018-07-05T03:39:33.165Z,17.20
2018-07-05T03:42:12.767Z,17.10
2018-07-05T03:44:52.350Z,17.00
2018-07-05T03:47:32.530Z,16.90
2018-07-05T03:50:12.199Z,16.90
2018-07-05T03:52:51.836Z,17.10
2018-07-05T03:55:32.011Z,17.20
2018-07-05T03:58:11.479Z,17.20
2018-07-05T04:00:51.157Z,17.30
2018-07-05T04:03:30.908Z,17.40
2018-07-05T04:06:10.483Z,17.50
2018-07-05T04:08:49.977Z,17.50
2018-07-05T04:11:29.525Z,17.70
2018-07-05T04:14:09.208Z,17.90
2018-07-05T04:19:22.539Z,17.60
2018-07-05T04:22:02.269Z,17.50
2018-07-05T04:24:41.897Z,17.40
2018-07-05T04:27:21.582Z,17.60
2018-07-05T04:30:02.059Z,17.80
2018-07-05T04:32:41.734Z,18.00
2018-07-05T04:35:21.293Z,18.20
2018-07-05T04:38:01.116Z,18.20
2018-07-05T04:40:40.725Z,18.30
2018-07-05T04:45:55.685Z,18.30
2018-07-05T04:48:35.394Z,18.40
2018-07-05T04:51:15.324Z,18.60
2018-07-05T04:53:55.008Z,18.60
2018-07-05T04:56:34.816Z,18.70
2018-07-05T04:59:14.679Z,18.80
2018-07-05T05:01:54.468Z,18.90
2018-07-05T05:04:34.348Z,19.00
2018-07-05T05:09:47.706Z,19.10
2018-07-05T05:12:27.200Z,19.10
2018-07-05T05:15:06.712Z,19.20
2018-07-05T05:17:46.254Z,19.10
2018-07-05T05:20:26.384Z,19.20
2018-07-05T05:23:06.000Z,19.30
2018-07-05T05:25:45.470Z,19.30
2018-07-05T05:28:25.086Z,19.30
2018-07-05T05:31:04.891Z,19.30
2018-07-05T05:33:44.409Z,19.30
2018-07-05T05:36:24.182Z,19.30
2018-07-05T05:39:04.933Z,19.30
2018-07-05T05:41:44.650Z,19.30
2018-07-05T05:44:24.188Z,19.40
2018-07-05T05:47:03.949Z,19.40
2018-07-05T05:49:43.622Z,19.40
2018-07-05T05:52:23.501Z,19.50
2018-07-05T05:57:36.817Z,19.50
2018-07-05T06:00:16.351Z,19.60
2018-07-05T06:02:55.768Z,19.60
2018-07-05T06:05:35.469Z,19.70
2018-07-05T06:08:15.172Z,19.80
2018-07-05T06:10:54.786Z,19.70
2018-07-05T06:13:34.318Z,19.80
2018-07-05T06:16:13.728Z,19.90
2018-07-05T06:18:53.283Z,20.10
2018-07-05T06:21:32.822Z,20.10
2018-07-05T06:24:12.511Z,20.20
2018-07-05T06:26:52.054Z,20.30
2018-07-05T06:29:32.454Z,20.30
2018-07-05T06:32:12.100Z,20.40
2018-07-05T06:34:51.588Z,20.60
2018-07-05T06:37:31.197Z,20.70
2018-07-05T06:40:10.867Z,20.80
2018-07-05T06:42:50.420Z,20.90
2018-07-05T06:45:29.906Z,21.20
2018-07-05T06:48:09.730Z,21.40
2018-07-05T06:50:49.243Z,21.60
2018-07-05T06:53:28.790Z,21.90
2018-07-05T06:56:08.305Z,22.00
2018-07-05T06:58:47.958Z,22.20
2018-07-05T07:01:27.609Z,22.30
2018-07-05T07:04:07.118Z,22.30
2018-07-05T07:06:46.814Z,22.50
2018-07-05T07:09:26.402Z,22.70
2018-07-05T07:12:05.889Z,22.70
2018-07-05T07:14:45.476Z,22.70
2018-07-05T07:17:25.316Z,22.70
2018-07-05T07:20:05.754Z,22.70
2018-07-05T07:22:45.241Z,22.90
2018-07-05T07:25:24.760Z,23.10
2018-07-05T07:28:04.285Z,23.20
2018-07-05T07:30:44.293Z,23.40
2018-07-05T07:33:23.986Z,23.60
2018-07-05T07:36:03.485Z,23.50
2018-07-05T07:38:43.146Z,23.50
2018-07-05T07:41:22.884Z,23.50
2018-07-05T07:43:50.270Z,23.30
2018-07-05T07:46:17.732Z,23.20
2018-07-05T07:48:45.057Z,23.20
2018-07-05T07:51:12.363Z,23.20
2018-07-05T07:53:39.666Z,23.20
2018-07-05T07:56:06.963Z,23.10
2018-07-05T07:58:34.255Z,23.20
2018-07-05T08:01:01.550Z,23.10
2018-07-05T08:03:28.855Z,23.10
2018-07-05T08:05:56.127Z,23.10
2018-07-05T08:08:23.411Z,23.20
2018-07-05T08:10:50.705Z,23.30
2018-07-05T08:13:18.010Z,23.20
2018-07-05T08:15:45.333Z,23.10
2018-07-05T08:18:12.633Z,22.80
2018-07-05T08:20:39.932Z,22.80
2018-07-05T08:23:07.225Z,22.80
2018-07-05T08:25:34.566Z,22.80
2018-07-05T08:28:01.866Z,22.80
2018-07-05T08:30:29.220Z,22.80
2018-07-05T08:32:56.664Z,22.70
2018-07-05T08:35:24.006Z,22.70
2018-07-05T08:37:51.427Z,22.60
2018-07-05T08:40:18.708Z,22.60
2018-07-05T08:42:46.017Z,22.60
2018-07-05T08:45:13.321Z,22.60
2018-07-05T08:47:40.625Z,22.40
2018-07-05T08:50:07.926Z,22.50
2018-07-05T08:52:35.916Z,22.40
2018-07-05T08:55:03.314Z,22.30
2018-07-05T08:57:30.616Z,22.20
2018-07-05T08:59:58.238Z,22.40
2018-07-05T09:02:25.554Z,22.40
2018-07-05T09:04:52.946Z,22.30
2018-07-05T09:07:20.410Z,22.30
2018-07-05T09:09:47.748Z,22.40
2018-07-05T09:12:15.041Z,22.40
2018-07-05T09:14:42.316Z,22.50
2018-07-05T09:17:09.608Z,22.50
2018-07-05T09:19:36.899Z,22.60
2018-07-05T09:22:04.184Z,22.60
2018-07-05T09:24:31.538Z,22.60
2018-07-05T09:26:58.840Z,22.60
2018-07-05T09:29:26.134Z,22.60
2018-07-05T09:31:53.445Z,22.50
2018-07-05T09:34:20.726Z,22.50
2018-07-05T09:36:48.024Z,22.50
2018-07-05T09:39:15.313Z,22.60
2018-07-05T09:41:42.598Z,22.60
2018-07-05T09:44:09.883Z,22.60
2018-07-05T09:46:37.218Z,22.60
2018-07-05T09:49:04.522Z,22.70
2018-07-05T09:51:31.811Z,22.80
2018-07-05T09:53:59.133Z,22.90
2018-07-05T09:56:26.430Z,22.90
2018-07-05T09:58:53.742Z,23.00
2018-07-05T10:01:21.011Z,23.10
2018-07-05T10:03:48.381Z,23.10
2018-07-05T10:06:15.790Z,23.10
2018-07-05T10:08:43.172Z,23.00
2018-07-05T10:11:10.518Z,23.00
2018-07-05T10:13:38.063Z,23.10
2018-07-05T10:16:05.086Z,23.10
2018-07-05T10:18:32.360Z,23.10
2018-07-05T10:20:59.728Z,23.10
2018-07-05T10:23:27.029Z,23.10
2018-07-05T10:25:54.312Z,23.00
2018-07-05T10:28:21.639Z,23.00
2018-07-05T10:31:01.302Z,23.00
2018-07-05T10:33:40.835Z,23.00
2018-07-05T10:36:08.158Z,23.10
2018-07-05T10:38:35.482Z,23.00
2018-07-05T10:41:15.047Z,23.00
2018-07-05T10:43:54.777Z,22.90
2018-07-05T10:46:34.285Z,22.80
2018-07-05T10:49:13.800Z,22.70
2018-07-05T10:51:53.342Z,22.70
2018-07-05T10:54:32.969Z,22.60
2018-07-05T10:57:12.485Z,22.60
2018-07-05T10:59:52.010Z,22.60
2018-07-05T11:02:32.094Z,22.50
2018-07-05T11:05:11.670Z,22.40
2018-07-05T11:07:51.152Z,22.30
2018-07-05T11:10:31.449Z,22.30
2018-07-05T11:13:11.265Z,22.20
2018-07-05T11:15:50.818Z,22.20
2018-07-05T11:18:30.983Z,22.00
2018-07-05T11:21:10.504Z,22.10
2018-07-05T11:23:50.043Z,21.90
2018-07-05T11:26:29.522Z,21.90
2018-07-05T11:29:09.051Z,21.80
2018-07-05T11:31:48.601Z,21.80
2018-07-05T11:34:28.044Z,21.80
2018-07-05T11:37:07.670Z,21.70
2018-07-05T11:39:47.138Z,21.60
2018-07-05T11:42:26.848Z,21.60
2018-07-05T11:45:06.700Z,21.70
2018-07-05T11:47:46.467Z,21.60
2018-07-05T11:50:26.023Z,21.60
2018-07-05T11:53:05.797Z,21.70
2018-07-05T11:55:45.760Z,21.60
2018-07-05T11:58:25.422Z,21.60
2018-07-05T12:01:05.373Z,21.60
2018-07-05T12:06:18.795Z,21.70
2018-07-05T12:11:33.075Z,21.90
2018-07-05T12:14:12.706Z,22.10
2018-07-05T12:16:52.445Z,22.20
2018-07-05T12:19:32.067Z,22.30
2018-07-05T12:22:11.653Z,22.40
2018-07-05T12:24:52.275Z,22.50
2018-07-05T12:27:32.283Z,22.60
2018-07-05T12:30:12.056Z,22.50
2018-07-05T12:32:52.422Z,22.40
2018-07-05T12:35:32.193Z,22.40
2018-07-05T12:38:12.086Z,22.40
2018-07-05T12:40:55.456Z,22.40
2018-07-05T12:43:39.307Z,22.50
2018-07-05T12:46:19.558Z,22.50
2018-07-05T12:48:59.414Z,22.60
2018-07-05T12:51:43.079Z,22.50
2018-07-05T12:54:28.078Z,22.60
2018-07-05T12:57:12.486Z,22.80
2018-07-05T12:59:52.312Z,22.80
2018-07-05T13:02:31.907Z,22.80
2018-07-05T13:05:11.494Z,22.80
2018-07-05T13:07:51.113Z,22.50
2018-07-05T13:10:30.852Z,21.60
2018-07-05T13:13:10.490Z,21.40
2018-07-05T13:15:50.243Z,21.30
2018-07-05T13:18:29.883Z,21.30
2018-07-05T13:21:09.739Z,21.10
2018-07-05T13:23:49.972Z,20.80
2018-07-05T13:29:03.488Z,20.40
2018-07-05T13:31:43.202Z,20.20
2018-07-05T13:34:22.862Z,20.20
2018-07-05T13:37:02.692Z,19.90
2018-07-05T13:39:42.673Z,20.00
2018-07-05T13:42:22.310Z,20.00
2018-07-05T13:45:01.981Z,20.10
2018-07-05T13:47:41.575Z,20.20
2018-07-05T13:50:21.242Z,20.40
2018-07-05T13:53:00.814Z,20.40
2018-07-05T13:55:40.501Z,20.40
2018-07-05T13:58:20.339Z,20.30
2018-07-05T14:01:00.283Z,20.30
2018-07-05T14:04:03.736Z,20.50
2018-07-05T14:06:50.168Z,20.40
2018-07-05T14:09:29.966Z,20.50
2018-07-05T14:12:09.680Z,20.30
2018-07-05T14:14:56.890Z,20.50
2018-07-05T14:17:36.706Z,20.60
2018-07-05T14:22:51.797Z,20.80
2018-07-05T14:25:31.362Z,20.80
2018-07-05T14:28:11.169Z,20.70
2018-07-05T14:30:50.892Z,20.70
2018-07-05T14:33:30.646Z,20.60
2018-07-05T14:36:10.297Z,20.60
2018-07-05T14:38:50.036Z,20.70
2018-07-05T14:41:29.730Z,20.80
2018-07-05T14:44:09.431Z,20.70
2018-07-05T14:46:49.267Z,20.70
2018-07-05T14:49:28.918Z,20.70
2018-07-05T14:52:08.480Z,20.80
2018-07-05T14:54:48.124Z,20.80
2018-07-05T14:57:27.826Z,20.70
2018-07-05T15:00:08.054Z,20.70
2018-07-05T15:02:47.793Z,20.70
2018-07-05T15:05:29.350Z,20.60
2018-07-05T15:08:13.918Z,20.60
2018-07-05T15:13:53.277Z,20.60
2018-07-05T15:16:36.634Z,20.50
2018-07-05T15:19:16.380Z,20.50
2018-07-05T15:21:56.072Z,20.40
2018-07-05T15:24:35.615Z,20.30
2018-07-05T15:27:15.434Z,20.40
2018-07-05T15:29:55.010Z,20.50
2018-07-05T15:32:35.365Z,20.50
2018-07-05T15:35:15.130Z,20.50
2018-07-05T15:37:54.987Z,20.50
2018-07-05T15:40:34.633Z,20.40
2018-07-05T15:43:14.381Z,20.50
2018-07-05T15:45:54.024Z,20.40
2018-07-05T15:48:34.461Z,20.20
2018-07-05T15:51:19.746Z,20.30
2018-07-05T15:56:32.886Z,20.30
2018-07-05T15:59:12.623Z,20.40
2018-07-05T16:01:52.290Z,20.40
2018-07-05T16:04:31.877Z,20.40
2018-07-05T16:07:12.342Z,20.50
2018-07-05T16:09:52.183Z,20.50
2018-07-05T16:12:31.715Z,20.50
2018-07-05T16:15:11.408Z,20.30
2018-07-05T16:17:51.582Z,20.40
2018-07-05T16:20:31.354Z,20.40
2018-07-05T16:23:11.269Z,20.40
2018-07-05T16:28:24.732Z,20.20
2018-07-05T16:31:04.345Z,20.30
2018-07-05T16:33:43.834Z,20.30
2018-07-05T16:36:23.437Z,20.30
2018-07-05T16:39:03.118Z,20.30
2018-07-05T16:41:42.614Z,20.30
2018-07-05T16:46:56.151Z,20.10
2018-07-05T16:49:35.738Z,20.10
2018-07-05T16:52:15.332Z,20.20
2018-07-05T16:54:55.067Z,20.20
2018-07-05T16:57:34.616Z,20.20
2018-07-05T17:00:14.129Z,20.10
2018-07-05T17:02:53.693Z,20.20
2018-07-05T17:05:33.358Z,20.20
2018-07-05T17:10:46.599Z,20.30
2018-07-05T17:13:26.113Z,20.30
2018-07-05T17:16:05.840Z,20.40
2018-07-05T17:18:45.446Z,20.40
2018-07-05T17:21:24.999Z,20.50
2018-07-05T17:24:04.474Z,20.40
2018-07-05T17:26:44.123Z,20.30
2018-07-05T18:13:15.444Z,20.30
2018-07-05T18:15:54.911Z,19.40
2018-07-05T18:18:35.198Z,19.40
2018-07-05T18:21:14.777Z,19.50
2018-07-05T18:23:54.222Z,19.60
2018-07-05T18:26:34.031Z,19.60
2018-07-05T18:29:13.825Z,19.70
2018-07-05T18:31:53.454Z,19.80
2018-07-05T18:34:33.870Z,19.80
2018-07-05T18:37:13.401Z,19.90
2018-07-05T18:39:53.128Z,19.80
2018-07-05T18:42:32.676Z,19.80
2018-07-05T18:45:12.399Z,19.80
2018-07-05T18:47:52.087Z,19.80
2018-07-05T18:50:31.745Z,19.70
2018-07-05T18:53:11.245Z,19.70
2018-07-05T18:55:51.425Z,19.70
2018-07-05T18:58:31.209Z,19.70
2018-07-05T19:01:10.799Z,19.70
2018-07-05T19:03:50.318Z,19.70
2018-07-05T19:06:29.776Z,19.60
2018-07-05T19:09:09.307Z,19.60
2018-07-05T19:11:49.081Z,19.60
2018-07-05T19:14:28.634Z,19.60
2018-07-05T19:17:08.290Z,19.60
2018-07-05T19:19:47.967Z,19.60
2018-07-05T19:22:27.745Z,19.60
2018-07-05T19:25:07.352Z,19.40
2018-07-05T19:27:47.905Z,19.50
2018-07-05T19:30:27.596Z,19.50
2018-07-05T19:33:07.145Z,19.50
2018-07-05T19:35:46.668Z,19.40
2018-07-05T19:38:26.198Z,19.40
2018-07-05T19:41:05.712Z,19.40
2018-07-05T19:43:45.358Z,19.30
2018-07-05T19:46:24.918Z,19.30
2018-07-05T19:49:04.543Z,19.30
2018-07-05T19:51:44.032Z,19.40
2018-07-05T19:54:23.597Z,19.40
2018-07-05T19:57:03.277Z,19.40
2018-07-05T19:59:43.015Z,19.30
2018-07-05T20:02:22.665Z,19.40
2018-07-05T20:05:02.242Z,19.40
2018-07-05T20:07:41.670Z,19.40
2018-07-05T20:10:21.194Z,19.30
2018-07-05T20:13:00.842Z,19.30
2018-07-05T20:15:40.421Z,19.30
2018-07-05T20:18:20.206Z,19.30
2018-07-05T20:20:59.881Z,19.20
2018-07-05T20:23:39.535Z,19.20
2018-07-05T20:28:53.536Z,19.20
2018-07-05T20:31:33.306Z,19.20
2018-07-05T20:34:13.000Z,19.10
2018-07-05T20:36:52.825Z,19.10
2018-07-05T20:39:32.693Z,19.20
2018-07-05T20:42:12.361Z,19.20
2018-07-05T20:44:52.018Z,19.20
2018-07-05T20:47:31.622Z,19.10
2018-07-05T20:50:11.399Z,19.10
2018-07-05T20:52:52.702Z,19.10
2018-07-05T20:55:32.591Z,19.10
2018-07-05T20:58:12.154Z,18.90
2018-07-05T21:00:51.840Z,18.80
2018-07-05T21:03:31.509Z,18.90
2018-07-05T21:06:11.129Z,18.90
2018-07-05T21:08:50.549Z,19.00
2018-07-05T21:11:30.126Z,19.00
2018-07-05T21:14:09.553Z,19.00
2018-07-05T21:16:49.193Z,18.90
2018-07-05T21:19:30.193Z,18.90
2018-07-05T21:22:10.182Z,18.90
2018-07-05T21:24:49.726Z,18.90
2018-07-05T21:27:29.250Z,19.00
2018-07-05T21:30:08.962Z,19.00
2018-07-05T21:32:48.502Z,19.00
2018-07-05T21:35:28.026Z,19.00
2018-07-05T21:38:07.565Z,18.90
2018-07-05T21:40:47.103Z,18.90
2018-07-05T21:43:26.632Z,18.90
2018-07-05T21:46:06.347Z,18.90
2018-07-05T21:48:45.987Z,18.90
2018-07-05T21:51:25.399Z,19.00
2018-07-05T21:54:05.088Z,19.00
2018-07-05T21:56:44.741Z,19.00
2018-07-05T21:59:24.345Z,19.00
2018-07-05T22:02:04.568Z,19.00
2018-07-05T22:04:44.170Z,19.00
2018-07-05T22:07:23.693Z,19.00
2018-07-05T22:10:03.293Z,19.00
2018-07-05T22:12:42.831Z,19.00
2018-07-05T22:15:22.447Z,19.00
2018-07-05T22:18:07.320Z,19.00
2018-07-05T22:20:52.219Z,19.10
2018-07-05T22:23:37.107Z,19.00
2018-07-05T22:26:31.273Z,19.10
2018-07-05T22:29:16.102Z,19.00
2018-07-05T22:31:59.653Z,18.90
2018-07-05T22:34:39.255Z,18.90
2018-07-05T22:37:18.811Z,18.90
2018-07-05T22:39:58.224Z,18.90
2018-07-05T22:42:37.919Z,18.90
2018-07-05T22:45:17.842Z,18.90
2018-07-05T22:47:57.369Z,18.90
2018-07-05T22:50:37.013Z,19.00
2018-07-05T22:53:16.662Z,19.00
2018-07-05T22:55:56.377Z,19.00
2018-07-05T22:58:36.269Z,19.00
2018-07-05T23:01:16.912Z,19.00
2018-07-05T23:03:57.073Z,19.00
2018-07-05T23:06:36.767Z,18.90
2018-07-05T23:09:16.577Z,18.90
2018-07-05T23:11:56.369Z,18.90
2018-07-05T23:14:35.985Z,18.90
2018-07-05T23:17:15.728Z,18.80
2018-07-05T23:19:55.466Z,18.80
2018-07-05T23:22:35.053Z,18.90
2018-07-05T23:25:14.749Z,18.80
2018-07-05T23:27:54.400Z,18.80
2018-07-05T23:30:34.086Z,18.50
2018-07-05T23:33:14.024Z,18.40
2018-07-05T23:35:53.700Z,18.30
2018-07-05T23:38:33.298Z,18.30
2018-07-05T23:41:12.993Z,18.30
2018-07-05T23:43:52.816Z,18.30
2018-07-05T23:46:32.463Z,18.30
2018-07-05T23:49:11.930Z,18.30
2018-07-05T23:51:51.661Z,18.20
2018-07-05T23:54:31.560Z,18.30
2018-07-05T23:57:11.198Z,18.40
2018-07-05T23:59:50.927Z,18.30
